sensor_id;sensor_type;location;lat;lon;timestamp;P1;durP1;ratioP1;P2;durP2;ratioP2
65558;SDS011;52203;51.998;5.140;2023-01-13T00:00:58;9.95;;;1.60;;
65558;SDS011;52203;51.998;5.140;2023-01-13T00:03:23;12.50;;;1.85;;
65558;SDS011;52203;51.998;5.140;2023-01-13T00:05:49;8.73;;;1.90;;
65558;SDS011;52203;51.998;5.140;2023-01-13T00:08:15;7.85;;;1.63;;
65558;SDS011;52203;51.998;5.140;2023-01-13T00:10:41;7.68;;;1.70;;
65558;SDS011;52203;51.998;5.140;2023-01-13T00:13:11;6.90;;;1.40;;
65558;SDS011;52203;51.998;5.140;2023-01-13T00:15:36;7.03;;;2.38;;
65558;SDS011;52203;51.998;5.140;2023-01-13T00:18:02;6.68;;;1.50;;
65558;SDS011;52203;51.998;5.140;2023-01-13T00:20:28;9.38;;;2.15;;
65558;SDS011;52203;51.998;5.140;2023-01-13T00:22:53;8.30;;;1.92;;
65558;SDS011;52203;51.998;5.140;2023-01-13T00:25:20;7.57;;;1.42;;
65558;SDS011;52203;51.998;5.140;2023-01-13T00:27:45;7.97;;;1.60;;
65558;SDS011;52203;51.998;5.140;2023-01-13T00:30:11;5.85;;;1.73;;
65558;SDS011;52203;51.998;5.140;2023-01-13T00:32:37;8.35;;;1.52;;
65558;SDS011;52203;51.998;5.140;2023-01-13T00:35:03;7.90;;;1.70;;
65558;SDS011;52203;51.998;5.140;2023-01-13T00:37:28;6.07;;;1.42;;
65558;SDS011;52203;51.998;5.140;2023-01-13T00:39:54;7.97;;;1.33;;
65558;SDS011;52203;51.998;5.140;2023-01-13T00:42:21;8.68;;;1.60;;
65558;SDS011;52203;51.998;5.140;2023-01-13T00:45:05;5.20;;;1.48;;
65558;SDS011;52203;51.998;5.140;2023-01-13T00:47:31;9.60;;;1.52;;
65558;SDS011;52203;51.998;5.140;2023-01-13T00:49:57;6.40;;;1.58;;
65558;SDS011;52203;51.998;5.140;2023-01-13T00:52:22;6.72;;;1.50;;
65558;SDS011;52203;51.998;5.140;2023-01-13T00:54:48;7.68;;;1.40;;
65558;SDS011;52203;51.998;5.140;2023-01-13T00:57:14;8.63;;;1.90;;
65558;SDS011;52203;51.998;5.140;2023-01-13T00:59:39;5.88;;;1.40;;
65558;SDS011;52203;51.998;5.140;2023-01-13T01:02:05;8.85;;;2.25;;
65558;SDS011;52203;51.998;5.140;2023-01-13T01:04:31;9.32;;;1.80;;
65558;SDS011;52203;51.998;5.140;2023-01-13T01:06:56;6.95;;;1.40;;
65558;SDS011;52203;51.998;5.140;2023-01-13T01:09:22;8.77;;;1.58;;
65558;SDS011;52203;51.998;5.140;2023-01-13T01:11:48;7.60;;;1.80;;
65558;SDS011;52203;51.998;5.140;2023-01-13T01:14:13;9.23;;;1.67;;
65558;SDS011;52203;51.998;5.140;2023-01-13T01:16:39;6.70;;;1.40;;
65558;SDS011;52203;51.998;5.140;2023-01-13T01:19:05;9.38;;;1.80;;
65558;SDS011;52203;51.998;5.140;2023-01-13T01:21:31;11.02;;;1.85;;
65558;SDS011;52203;51.998;5.140;2023-01-13T01:23:58;8.60;;;1.75;;
65558;SDS011;52203;51.998;5.140;2023-01-13T01:26:26;11.60;;;1.92;;
65558;SDS011;52203;51.998;5.140;2023-01-13T01:28:53;9.60;;;1.85;;
65558;SDS011;52203;51.998;5.140;2023-01-13T01:31:21;8.18;;;1.58;;
65558;SDS011;52203;51.998;5.140;2023-01-13T01:33:48;7.25;;;1.50;;
65558;SDS011;52203;51.998;5.140;2023-01-13T01:36:15;11.02;;;1.80;;
65558;SDS011;52203;51.998;5.140;2023-01-13T01:38:42;6.82;;;1.52;;
65558;SDS011;52203;51.998;5.140;2023-01-13T01:41:13;9.05;;;1.65;;
65558;SDS011;52203;51.998;5.140;2023-01-13T01:43:45;7.65;;;1.85;;
65558;SDS011;52203;51.998;5.140;2023-01-13T01:46:42;8.88;;;1.88;;
65558;SDS011;52203;51.998;5.140;2023-01-13T01:51:45;12.82;;;2.53;;
65558;SDS011;52203;51.998;5.140;2023-01-13T01:54:14;13.60;;;2.55;;
65558;SDS011;52203;51.998;5.140;2023-01-13T01:56:44;15.80;;;2.10;;
65558;SDS011;52203;51.998;5.140;2023-01-13T01:59:11;11.15;;;2.28;;
65558;SDS011;52203;51.998;5.140;2023-01-13T02:01:38;10.57;;;1.88;;
65558;SDS011;52203;51.998;5.140;2023-01-13T02:04:08;7.68;;;1.90;;
65558;SDS011;52203;51.998;5.140;2023-01-13T02:06:37;11.17;;;1.97;;
65558;SDS011;52203;51.998;5.140;2023-01-13T02:09:03;9.93;;;2.40;;
65558;SDS011;52203;51.998;5.140;2023-01-13T02:11:33;10.38;;;2.10;;
65558;SDS011;52203;51.998;5.140;2023-01-13T02:14:21;11.00;;;1.90;;
65558;SDS011;52203;51.998;5.140;2023-01-13T02:16:52;12.00;;;1.90;;
65558;SDS011;52203;51.998;5.140;2023-01-13T02:19:48;11.20;;;1.90;;
65558;SDS011;52203;51.998;5.140;2023-01-13T02:30:29;15.57;;;3.00;;
65558;SDS011;52203;51.998;5.140;2023-01-13T02:44:27;9.82;;;2.25;;
65558;SDS011;52203;51.998;5.140;2023-01-13T02:47:05;10.77;;;1.85;;
65558;SDS011;52203;51.998;5.140;2023-01-13T02:49:38;7.55;;;2.20;;
65558;SDS011;52203;51.998;5.140;2023-01-13T02:52:14;12.45;;;2.28;;
65558;SDS011;52203;51.998;5.140;2023-01-13T02:55:35;12.27;;;1.85;;
65558;SDS011;52203;51.998;5.140;2023-01-13T02:57:40;12.90;;;2.30;;
65558;SDS011;52203;51.998;5.140;2023-01-13T03:00:08;9.32;;;2.10;;
65558;SDS011;52203;51.998;5.140;2023-01-13T03:02:36;11.30;;;2.15;;
65558;SDS011;52203;51.998;5.140;2023-01-13T03:05:02;12.85;;;1.90;;
65558;SDS011;52203;51.998;5.140;2023-01-13T03:13:38;11.07;;;2.03;;
65558;SDS011;52203;51.998;5.140;2023-01-13T03:24:33;8.55;;;1.73;;
65558;SDS011;52203;51.998;5.140;2023-01-13T03:27:14;13.50;;;2.15;;
65558;SDS011;52203;51.998;5.140;2023-01-13T03:30:15;12.93;;;1.95;;
65558;SDS011;52203;51.998;5.140;2023-01-13T03:33:15;10.20;;;2.08;;
65558;SDS011;52203;51.998;5.140;2023-01-13T03:35:44;5.20;;;2.33;;
65558;SDS011;52203;51.998;5.140;2023-01-13T03:38:19;12.52;;;2.33;;
65558;SDS011;52203;51.998;5.140;2023-01-13T03:40:55;9.82;;;1.83;;
65558;SDS011;52203;51.998;5.140;2023-01-13T03:43:30;8.48;;;1.98;;
65558;SDS011;52203;51.998;5.140;2023-01-13T03:46:30;9.80;;;1.70;;
65558;SDS011;52203;51.998;5.140;2023-01-13T03:49:02;8.23;;;1.58;;
65558;SDS011;52203;51.998;5.140;2023-01-13T03:51:31;10.35;;;1.77;;
65558;SDS011;52203;51.998;5.140;2023-01-13T03:54:01;10.75;;;1.90;;
65558;SDS011;52203;51.998;5.140;2023-01-13T03:56:35;9.13;;;1.58;;
65558;SDS011;52203;51.998;5.140;2023-01-13T03:59:06;12.67;;;1.97;;
65558;SDS011;52203;51.998;5.140;2023-01-13T04:04:20;4.82;;;1.35;;
65558;SDS011;52203;51.998;5.140;2023-01-13T04:09:35;7.40;;;1.38;;
65558;SDS011;52203;51.998;5.140;2023-01-13T04:12:12;6.05;;;1.65;;
65558;SDS011;52203;51.998;5.140;2023-01-13T04:15:16;7.38;;;1.48;;
65558;SDS011;52203;51.998;5.140;2023-01-13T04:17:42;7.40;;;1.73;;
65558;SDS011;52203;51.998;5.140;2023-01-13T04:20:08;5.85;;;1.23;;
65558;SDS011;52203;51.998;5.140;2023-01-13T04:22:34;6.93;;;1.40;;
65558;SDS011;52203;51.998;5.140;2023-01-13T04:25:00;6.22;;;1.30;;
65558;SDS011;52203;51.998;5.140;2023-01-13T04:27:26;6.35;;;1.25;;
65558;SDS011;52203;51.998;5.140;2023-01-13T04:29:51;7.65;;;1.40;;
65558;SDS011;52203;51.998;5.140;2023-01-13T04:32:17;4.10;;;1.30;;
65558;SDS011;52203;51.998;5.140;2023-01-13T04:34:43;4.68;;;1.20;;
65558;SDS011;52203;51.998;5.140;2023-01-13T04:37:08;6.63;;;1.30;;
65558;SDS011;52203;51.998;5.140;2023-01-13T04:39:34;4.55;;;0.90;;
65558;SDS011;52203;51.998;5.140;2023-01-13T04:42:00;6.80;;;1.75;;
65558;SDS011;52203;51.998;5.140;2023-01-13T04:44:27;6.32;;;1.17;;
65558;SDS011;52203;51.998;5.140;2023-01-13T04:46:56;4.15;;;1.00;;
65558;SDS011;52203;51.998;5.140;2023-01-13T04:49:22;4.72;;;1.02;;
65558;SDS011;52203;51.998;5.140;2023-01-13T04:51:48;4.65;;;1.13;;
65558;SDS011;52203;51.998;5.140;2023-01-13T04:54:13;4.72;;;1.15;;
65558;SDS011;52203;51.998;5.140;2023-01-13T04:56:40;7.78;;;1.35;;
65558;SDS011;52203;51.998;5.140;2023-01-13T04:59:05;3.97;;;1.08;;
65558;SDS011;52203;51.998;5.140;2023-01-13T05:01:31;7.00;;;1.45;;
65558;SDS011;52203;51.998;5.140;2023-01-13T05:03:57;5.75;;;1.10;;
65558;SDS011;52203;51.998;5.140;2023-01-13T05:06:23;4.60;;;1.27;;
65558;SDS011;52203;51.998;5.140;2023-01-13T05:08:48;5.82;;;1.05;;
65558;SDS011;52203;51.998;5.140;2023-01-13T05:11:15;4.95;;;1.58;;
65558;SDS011;52203;51.998;5.140;2023-01-13T05:13:58;5.88;;;1.10;;
65558;SDS011;52203;51.998;5.140;2023-01-13T05:16:49;8.35;;;1.40;;
65558;SDS011;52203;51.998;5.140;2023-01-13T05:19:28;4.50;;;0.88;;
65558;SDS011;52203;51.998;5.140;2023-01-13T05:21:59;6.47;;;1.10;;
65558;SDS011;52203;51.998;5.140;2023-01-13T05:24:54;4.60;;;1.00;;
65558;SDS011;52203;51.998;5.140;2023-01-13T05:27:39;4.53;;;1.00;;
65558;SDS011;52203;51.998;5.140;2023-01-13T05:30:04;5.00;;;1.05;;
65558;SDS011;52203;51.998;5.140;2023-01-13T05:32:31;4.50;;;1.40;;
65558;SDS011;52203;51.998;5.140;2023-01-13T05:34:57;5.10;;;1.02;;
65558;SDS011;52203;51.998;5.140;2023-01-13T05:37:23;6.75;;;1.20;;
65558;SDS011;52203;51.998;5.140;2023-01-13T05:39:49;8.13;;;1.33;;
65558;SDS011;52203;51.998;5.140;2023-01-13T05:42:34;5.97;;;1.30;;
65558;SDS011;52203;51.998;5.140;2023-01-13T05:45:18;7.07;;;1.40;;
65558;SDS011;52203;51.998;5.140;2023-01-13T05:47:44;5.38;;;1.20;;
65558;SDS011;52203;51.998;5.140;2023-01-13T05:50:09;7.28;;;1.92;;
65558;SDS011;52203;51.998;5.140;2023-01-13T05:52:35;4.90;;;1.10;;
65558;SDS011;52203;51.998;5.140;2023-01-13T05:55:01;6.32;;;1.35;;
65558;SDS011;52203;51.998;5.140;2023-01-13T05:57:27;5.57;;;1.25;;
65558;SDS011;52203;51.998;5.140;2023-01-13T05:59:52;4.88;;;1.30;;
65558;SDS011;52203;51.998;5.140;2023-01-13T06:02:18;7.72;;;1.45;;
65558;SDS011;52203;51.998;5.140;2023-01-13T06:04:44;7.05;;;1.20;;
65558;SDS011;52203;51.998;5.140;2023-01-13T06:07:09;7.53;;;1.17;;
65558;SDS011;52203;51.998;5.140;2023-01-13T06:09:35;6.75;;;1.55;;
65558;SDS011;52203;51.998;5.140;2023-01-13T06:12:00;6.00;;;1.60;;
65558;SDS011;52203;51.998;5.140;2023-01-13T06:14:26;6.57;;;1.33;;
65558;SDS011;52203;51.998;5.140;2023-01-13T06:17:05;6.30;;;2.65;;
65558;SDS011;52203;51.998;5.140;2023-01-13T06:19:31;8.20;;;1.23;;
65558;SDS011;52203;51.998;5.140;2023-01-13T06:21:57;5.03;;;1.42;;
65558;SDS011;52203;51.998;5.140;2023-01-13T06:24:23;6.18;;;1.30;;
65558;SDS011;52203;51.998;5.140;2023-01-13T06:26:48;7.55;;;1.70;;
65558;SDS011;52203;51.998;5.140;2023-01-13T06:29:14;8.63;;;1.50;;
65558;SDS011;52203;51.998;5.140;2023-01-13T06:31:40;6.68;;;1.27;;
65558;SDS011;52203;51.998;5.140;2023-01-13T06:34:10;10.20;;;2.45;;
65558;SDS011;52203;51.998;5.140;2023-01-13T06:36:42;6.72;;;1.33;;
65558;SDS011;52203;51.998;5.140;2023-01-13T06:39:13;6.38;;;1.10;;
65558;SDS011;52203;51.998;5.140;2023-01-13T06:41:41;4.85;;;1.40;;
65558;SDS011;52203;51.998;5.140;2023-01-13T06:44:26;6.78;;;1.13;;
65558;SDS011;52203;51.998;5.140;2023-01-13T06:46:53;6.53;;;1.40;;
65558;SDS011;52203;51.998;5.140;2023-01-13T06:49:18;7.18;;;1.42;;
65558;SDS011;52203;51.998;5.140;2023-01-13T06:51:44;10.20;;;1.52;;
65558;SDS011;52203;51.998;5.140;2023-01-13T06:54:10;5.68;;;1.13;;
65558;SDS011;52203;51.998;5.140;2023-01-13T06:56:36;4.57;;;1.40;;
65558;SDS011;52203;51.998;5.140;2023-01-13T06:59:01;5.82;;;1.10;;
65558;SDS011;52203;51.998;5.140;2023-01-13T07:01:27;7.68;;;1.92;;
65558;SDS011;52203;51.998;5.140;2023-01-13T07:03:53;5.68;;;1.38;;
65558;SDS011;52203;51.998;5.140;2023-01-13T07:06:18;7.63;;;1.27;;
65558;SDS011;52203;51.998;5.140;2023-01-13T07:08:44;7.20;;;1.42;;
65558;SDS011;52203;51.998;5.140;2023-01-13T07:11:09;12.23;;;1.92;;
65558;SDS011;52203;51.998;5.140;2023-01-13T07:13:35;6.35;;;1.27;;
65558;SDS011;52203;51.998;5.140;2023-01-13T07:16:19;8.98;;;1.30;;
65558;SDS011;52203;51.998;5.140;2023-01-13T07:18:44;7.57;;;1.25;;
65558;SDS011;52203;51.998;5.140;2023-01-13T07:21:10;8.23;;;1.27;;
65558;SDS011;52203;51.998;5.140;2023-01-13T07:23:38;6.72;;;1.20;;
65558;SDS011;52203;51.998;5.140;2023-01-13T07:26:05;9.98;;;1.42;;
65558;SDS011;52203;51.998;5.140;2023-01-13T07:28:34;9.95;;;1.55;;
65558;SDS011;52203;51.998;5.140;2023-01-13T07:31:00;7.00;;;1.25;;
65558;SDS011;52203;51.998;5.140;2023-01-13T07:33:26;4.22;;;1.10;;
65558;SDS011;52203;51.998;5.140;2023-01-13T07:35:56;5.32;;;1.30;;
65558;SDS011;52203;51.998;5.140;2023-01-13T07:38:25;6.63;;;1.50;;
65558;SDS011;52203;51.998;5.140;2023-01-13T07:40:51;7.00;;;1.30;;
65558;SDS011;52203;51.998;5.140;2023-01-13T07:43:16;7.53;;;1.70;;
65558;SDS011;52203;51.998;5.140;2023-01-13T07:45:57;6.40;;;1.50;;
65558;SDS011;52203;51.998;5.140;2023-01-13T07:48:27;4.45;;;0.90;;
65558;SDS011;52203;51.998;5.140;2023-01-13T07:50:54;8.88;;;1.48;;
65558;SDS011;52203;51.998;5.140;2023-01-13T07:53:20;4.75;;;1.52;;
65558;SDS011;52203;51.998;5.140;2023-01-13T07:55:46;8.65;;;1.80;;
65558;SDS011;52203;51.998;5.140;2023-01-13T07:58:11;7.65;;;1.33;;
65558;SDS011;52203;51.998;5.140;2023-01-13T08:00:37;9.13;;;1.40;;
65558;SDS011;52203;51.998;5.140;2023-01-13T08:03:03;4.53;;;1.73;;
65558;SDS011;52203;51.998;5.140;2023-01-13T08:05:29;6.97;;;1.25;;
65558;SDS011;52203;51.998;5.140;2023-01-13T08:07:55;10.40;;;1.92;;
65558;SDS011;52203;51.998;5.140;2023-01-13T08:10:21;7.50;;;1.70;;
65558;SDS011;52203;51.998;5.140;2023-01-13T08:12:46;7.55;;;1.70;;
65558;SDS011;52203;51.998;5.140;2023-01-13T08:15:31;7.75;;;1.42;;
65558;SDS011;52203;51.998;5.140;2023-01-13T08:17:57;6.75;;;1.45;;
65558;SDS011;52203;51.998;5.140;2023-01-13T08:20:23;6.03;;;1.30;;
65558;SDS011;52203;51.998;5.140;2023-01-13T08:22:49;9.52;;;1.67;;
65558;SDS011;52203;51.998;5.140;2023-01-13T08:25:15;9.65;;;1.92;;
65558;SDS011;52203;51.998;5.140;2023-01-13T08:27:41;7.38;;;1.40;;
65558;SDS011;52203;51.998;5.140;2023-01-13T08:30:07;5.22;;;1.50;;
65558;SDS011;52203;51.998;5.140;2023-01-13T08:32:33;6.00;;;1.40;;
65558;SDS011;52203;51.998;5.140;2023-01-13T08:34:59;8.18;;;1.75;;
65558;SDS011;52203;51.998;5.140;2023-01-13T08:37:24;6.07;;;1.23;;
65558;SDS011;52203;51.998;5.140;2023-01-13T08:39:50;7.10;;;1.83;;
65558;SDS011;52203;51.998;5.140;2023-01-13T08:42:15;8.15;;;1.50;;
65558;SDS011;52203;51.998;5.140;2023-01-13T08:44:41;9.48;;;2.42;;
65558;SDS011;52203;51.998;5.140;2023-01-13T08:47:07;5.50;;;1.25;;
65558;SDS011;52203;51.998;5.140;2023-01-13T08:49:32;8.00;;;1.20;;
65558;SDS011;52203;51.998;5.140;2023-01-13T08:51:58;8.60;;;1.33;;
65558;SDS011;52203;51.998;5.140;2023-01-13T08:54:23;6.72;;;1.20;;
65558;SDS011;52203;51.998;5.140;2023-01-13T08:56:49;7.63;;;2.47;;
65558;SDS011;52203;51.998;5.140;2023-01-13T08:59:16;8.18;;;1.58;;
65558;SDS011;52203;51.998;5.140;2023-01-13T09:01:43;7.00;;;1.42;;
65558;SDS011;52203;51.998;5.140;2023-01-13T09:04:19;5.95;;;1.27;;
65558;SDS011;52203;51.998;5.140;2023-01-13T09:06:47;7.85;;;1.65;;
65558;SDS011;52203;51.998;5.140;2023-01-13T09:09:13;7.53;;;1.73;;
65558;SDS011;52203;51.998;5.140;2023-01-13T09:11:40;5.65;;;1.20;;
65558;SDS011;52203;51.998;5.140;2023-01-13T09:14:28;8.52;;;1.48;;
65558;SDS011;52203;51.998;5.140;2023-01-13T09:16:55;7.70;;;1.33;;
65558;SDS011;52203;51.998;5.140;2023-01-13T09:19:21;9.43;;;1.38;;
65558;SDS011;52203;51.998;5.140;2023-01-13T09:21:46;7.15;;;1.40;;
65558;SDS011;52203;51.998;5.140;2023-01-13T09:24:12;6.57;;;1.85;;
65558;SDS011;52203;51.998;5.140;2023-01-13T09:26:38;10.32;;;1.80;;
65558;SDS011;52203;51.998;5.140;2023-01-13T09:29:03;5.95;;;1.45;;
65558;SDS011;52203;51.998;5.140;2023-01-13T09:31:29;10.15;;;1.58;;
65558;SDS011;52203;51.998;5.140;2023-01-13T09:33:59;8.45;;;1.90;;
65558;SDS011;52203;51.998;5.140;2023-01-13T09:36:46;6.97;;;1.58;;
65558;SDS011;52203;51.998;5.140;2023-01-13T09:39:12;7.60;;;1.42;;
65558;SDS011;52203;51.998;5.140;2023-01-13T09:41:46;7.50;;;1.27;;
65558;SDS011;52203;51.998;5.140;2023-01-13T09:47:26;10.02;;;2.13;;
65558;SDS011;52203;51.998;5.140;2023-01-13T09:52:53;7.32;;;1.45;;
65558;SDS011;52203;51.998;5.140;2023-01-13T09:55:24;9.60;;;1.75;;
65558;SDS011;52203;51.998;5.140;2023-01-13T09:57:57;8.10;;;1.40;;
65558;SDS011;52203;51.998;5.140;2023-01-13T10:00:28;9.95;;;1.90;;
65558;SDS011;52203;51.998;5.140;2023-01-13T10:05:46;7.60;;;1.80;;
65558;SDS011;52203;51.998;5.140;2023-01-13T10:08:33;9.02;;;2.28;;
65558;SDS011;52203;51.998;5.140;2023-01-13T10:11:03;7.30;;;1.70;;
65558;SDS011;52203;51.998;5.140;2023-01-13T10:14:16;6.97;;;1.77;;
65558;SDS011;52203;51.998;5.140;2023-01-13T10:19:33;7.28;;;1.55;;
65558;SDS011;52203;51.998;5.140;2023-01-13T10:22:11;12.18;;;1.75;;
65558;SDS011;52203;51.998;5.140;2023-01-13T10:27:42;6.00;;;1.38;;
65558;SDS011;52203;51.998;5.140;2023-01-13T10:32:54;12.73;;;2.42;;
65558;SDS011;52203;51.998;5.140;2023-01-13T10:41:00;6.35;;;1.67;;
65558;SDS011;52203;51.998;5.140;2023-01-13T10:43:38;8.35;;;1.85;;
65558;SDS011;52203;51.998;5.140;2023-01-13T10:46:13;9.77;;;1.58;;
65558;SDS011;52203;51.998;5.140;2023-01-13T10:48:41;9.18;;;1.52;;
65558;SDS011;52203;51.998;5.140;2023-01-13T10:56:18;6.32;;;1.48;;
65558;SDS011;52203;51.998;5.140;2023-01-13T10:58:45;6.82;;;1.40;;
65558;SDS011;52203;51.998;5.140;2023-01-13T11:01:24;8.63;;;1.80;;
65558;SDS011;52203;51.998;5.140;2023-01-13T11:03:54;5.20;;;1.30;;
65558;SDS011;52203;51.998;5.140;2023-01-13T11:06:24;8.00;;;1.35;;
65558;SDS011;52203;51.998;5.140;2023-01-13T11:08:53;6.85;;;1.75;;
65558;SDS011;52203;51.998;5.140;2023-01-13T11:11:26;10.10;;;1.42;;
65558;SDS011;52203;51.998;5.140;2023-01-13T11:20:04;6.32;;;1.30;;
65558;SDS011;52203;51.998;5.140;2023-01-13T11:22:47;7.03;;;1.70;;
65558;SDS011;52203;51.998;5.140;2023-01-13T11:25:25;5.10;;;1.02;;
65558;SDS011;52203;51.998;5.140;2023-01-13T11:31:24;5.30;;;1.60;;
65558;SDS011;52203;51.998;5.140;2023-01-13T11:34:01;7.38;;;1.42;;
65558;SDS011;52203;51.998;5.140;2023-01-13T11:36:41;5.57;;;1.15;;
65558;SDS011;52203;51.998;5.140;2023-01-13T11:39:14;6.30;;;1.25;;
65558;SDS011;52203;51.998;5.140;2023-01-13T11:41:52;5.00;;;1.58;;
65558;SDS011;52203;51.998;5.140;2023-01-13T11:44:54;6.90;;;1.38;;
65558;SDS011;52203;51.998;5.140;2023-01-13T11:47:44;4.93;;;1.00;;
65558;SDS011;52203;51.998;5.140;2023-01-13T11:50:17;7.60;;;1.52;;
65558;SDS011;52203;51.998;5.140;2023-01-13T12:04:18;8.35;;;2.08;;
65558;SDS011;52203;51.998;5.140;2023-01-13T12:07:07;6.90;;;1.13;;
65558;SDS011;52203;51.998;5.140;2023-01-13T12:23:53;6.50;;;1.30;;
65558;SDS011;52203;51.998;5.140;2023-01-13T12:26:22;6.55;;;1.25;;
65558;SDS011;52203;51.998;5.140;2023-01-13T12:31:35;9.47;;;1.37;;
65558;SDS011;52203;51.998;5.140;2023-01-13T12:45:18;8.32;;;1.50;;
65558;SDS011;52203;51.998;5.140;2023-01-13T12:47:47;13.57;;;2.67;;
65558;SDS011;52203;51.998;5.140;2023-01-13T12:50:55;6.22;;;1.40;;
65558;SDS011;52203;51.998;5.140;2023-01-13T12:55:53;8.95;;;1.65;;
65558;SDS011;52203;51.998;5.140;2023-01-13T12:58:25;8.15;;;1.58;;
65558;SDS011;52203;51.998;5.140;2023-01-13T13:00:53;8.93;;;1.60;;
65558;SDS011;52203;51.998;5.140;2023-01-13T13:03:26;10.15;;;1.65;;
65558;SDS011;52203;51.998;5.140;2023-01-13T13:06:13;9.00;;;1.80;;
65558;SDS011;52203;51.998;5.140;2023-01-13T13:08:45;9.63;;;1.77;;
65558;SDS011;52203;51.998;5.140;2023-01-13T13:11:48;5.60;;;1.30;;
65558;SDS011;52203;51.998;5.140;2023-01-13T13:17:04;5.93;;;1.40;;
65558;SDS011;52203;51.998;5.140;2023-01-13T13:19:52;6.63;;;1.83;;
65558;SDS011;52203;51.998;5.140;2023-01-13T13:30:16;8.57;;;1.45;;
65558;SDS011;52203;51.998;5.140;2023-01-13T13:35:54;5.43;;;1.40;;
65558;SDS011;52203;51.998;5.140;2023-01-13T13:38:56;5.78;;;1.13;;
65558;SDS011;52203;51.998;5.140;2023-01-13T13:41:44;11.48;;;1.80;;
65558;SDS011;52203;51.998;5.140;2023-01-13T13:44:40;10.00;;;1.60;;
65558;SDS011;52203;51.998;5.140;2023-01-13T13:47:37;6.88;;;1.67;;
65558;SDS011;52203;51.998;5.140;2023-01-13T13:50:11;8.57;;;1.55;;
65558;SDS011;52203;51.998;5.140;2023-01-13T13:52:44;7.28;;;1.30;;
65558;SDS011;52203;51.998;5.140;2023-01-13T13:55:19;15.65;;;1.88;;
65558;SDS011;52203;51.998;5.140;2023-01-13T13:57:48;8.20;;;1.48;;
65558;SDS011;52203;51.998;5.140;2023-01-13T14:00:25;11.13;;;1.48;;
65558;SDS011;52203;51.998;5.140;2023-01-13T14:02:58;8.10;;;1.48;;
65558;SDS011;52203;51.998;5.140;2023-01-13T14:05:32;10.43;;;1.50;;
65558;SDS011;52203;51.998;5.140;2023-01-13T14:08:11;9.13;;;1.77;;
65558;SDS011;52203;51.998;5.140;2023-01-13T14:10:39;7.63;;;1.65;;
65558;SDS011;52203;51.998;5.140;2023-01-13T14:13:13;9.25;;;1.63;;
65558;SDS011;52203;51.998;5.140;2023-01-13T14:16:05;8.80;;;2.45;;
65558;SDS011;52203;51.998;5.140;2023-01-13T14:18:43;8.68;;;1.30;;
65558;SDS011;52203;51.998;5.140;2023-01-13T14:21:17;5.82;;;1.30;;
65558;SDS011;52203;51.998;5.140;2023-01-13T14:23:51;9.25;;;1.40;;
65558;SDS011;52203;51.998;5.140;2023-01-13T14:26:29;5.40;;;1.33;;
65558;SDS011;52203;51.998;5.140;2023-01-13T14:28:56;8.13;;;1.70;;
65558;SDS011;52203;51.998;5.140;2023-01-13T14:31:24;7.03;;;1.33;;
65558;SDS011;52203;51.998;5.140;2023-01-13T14:33:51;7.70;;;1.42;;
65558;SDS011;52203;51.998;5.140;2023-01-13T14:43:57;9.02;;;1.58;;
65558;SDS011;52203;51.998;5.140;2023-01-13T14:46:27;5.78;;;1.40;;
65558;SDS011;52203;51.998;5.140;2023-01-13T14:49:01;6.93;;;1.10;;
65558;SDS011;52203;51.998;5.140;2023-01-13T14:51:27;7.03;;;1.05;;
65558;SDS011;52203;51.998;5.140;2023-01-13T14:53:54;4.40;;;1.13;;
65558;SDS011;52203;51.998;5.140;2023-01-13T15:07:56;6.43;;;1.20;;
65558;SDS011;52203;51.998;5.140;2023-01-13T15:10:33;6.10;;;1.50;;
65558;SDS011;52203;51.998;5.140;2023-01-13T15:13:05;9.00;;;1.40;;
65558;SDS011;52203;51.998;5.140;2023-01-13T15:15:32;4.47;;;1.20;;
65558;SDS011;52203;51.998;5.140;2023-01-13T15:18:00;4.38;;;1.15;;
65558;SDS011;52203;51.998;5.140;2023-01-13T15:20:29;3.15;;;0.90;;
65558;SDS011;52203;51.998;5.140;2023-01-13T15:22:55;4.93;;;1.10;;
65558;SDS011;52203;51.998;5.140;2023-01-13T15:25:25;4.85;;;1.25;;
65558;SDS011;52203;51.998;5.140;2023-01-13T15:27:56;4.50;;;1.30;;
65558;SDS011;52203;51.998;5.140;2023-01-13T15:30:23;6.60;;;1.15;;
65558;SDS011;52203;51.998;5.140;2023-01-13T15:32:50;4.07;;;1.08;;
65558;SDS011;52203;51.998;5.140;2023-01-13T15:35:18;4.97;;;1.10;;
65558;SDS011;52203;51.998;5.140;2023-01-13T15:37:44;6.15;;;1.40;;
65558;SDS011;52203;51.998;5.140;2023-01-13T15:40:12;3.47;;;1.05;;
65558;SDS011;52203;51.998;5.140;2023-01-13T15:42:43;4.78;;;1.20;;
65558;SDS011;52203;51.998;5.140;2023-01-13T15:45:27;5.82;;;1.02;;
65558;SDS011;52203;51.998;5.140;2023-01-13T15:48:11;5.70;;;1.20;;
65558;SDS011;52203;51.998;5.140;2023-01-13T15:50:38;6.45;;;1.40;;
65558;SDS011;52203;51.998;5.140;2023-01-13T15:53:03;5.35;;;1.10;;
65558;SDS011;52203;51.998;5.140;2023-01-13T15:55:31;3.53;;;1.20;;
65558;SDS011;52203;51.998;5.140;2023-01-13T15:57:57;5.65;;;1.33;;
65558;SDS011;52203;51.998;5.140;2023-01-13T16:00:23;5.75;;;1.17;;
65558;SDS011;52203;51.998;5.140;2023-01-13T16:02:53;4.85;;;1.10;;
65558;SDS011;52203;51.998;5.140;2023-01-13T16:05:21;7.05;;;1.30;;
65558;SDS011;52203;51.998;5.140;2023-01-13T16:07:49;3.92;;;1.05;;
65558;SDS011;52203;51.998;5.140;2023-01-13T16:10:19;7.88;;;1.98;;
65558;SDS011;52203;51.998;5.140;2023-01-13T16:12:50;9.43;;;2.83;;
65558;SDS011;52203;51.998;5.140;2023-01-13T16:15:18;21.92;;;5.65;;
65558;SDS011;52203;51.998;5.140;2023-01-13T16:17:48;26.75;;;6.97;;
65558;SDS011;52203;51.998;5.140;2023-01-13T16:20:20;30.25;;;7.72;;
65558;SDS011;52203;51.998;5.140;2023-01-13T16:22:46;20.95;;;5.88;;
65558;SDS011;52203;51.998;5.140;2023-01-13T16:25:16;18.88;;;6.50;;
65558;SDS011;52203;51.998;5.140;2023-01-13T16:27:44;16.15;;;4.28;;
65558;SDS011;52203;51.998;5.140;2023-01-13T16:30:15;21.13;;;4.40;;
65558;SDS011;52203;51.998;5.140;2023-01-13T16:32:55;20.50;;;4.53;;
65558;SDS011;52203;51.998;5.140;2023-01-13T16:35:22;18.55;;;4.03;;
65558;SDS011;52203;51.998;5.140;2023-01-13T16:37:48;15.85;;;4.13;;
65558;SDS011;52203;51.998;5.140;2023-01-13T16:40:31;14.63;;;3.58;;
65558;SDS011;52203;51.998;5.140;2023-01-13T16:42:59;14.82;;;3.95;;
65558;SDS011;52203;51.998;5.140;2023-01-13T16:45:27;11.30;;;2.90;;
65558;SDS011;52203;51.998;5.140;2023-01-13T16:47:56;10.30;;;2.60;;
65558;SDS011;52203;51.998;5.140;2023-01-13T16:50:26;10.55;;;2.95;;
65558;SDS011;52203;51.998;5.140;2023-01-13T16:52:54;10.80;;;2.58;;
65558;SDS011;52203;51.998;5.140;2023-01-13T16:55:20;9.00;;;2.38;;
65558;SDS011;52203;51.998;5.140;2023-01-13T16:57:46;8.52;;;2.40;;
65558;SDS011;52203;51.998;5.140;2023-01-13T17:00:12;9.55;;;2.40;;
65558;SDS011;52203;51.998;5.140;2023-01-13T17:02:38;7.25;;;2.00;;
65558;SDS011;52203;51.998;5.140;2023-01-13T17:05:04;9.45;;;2.60;;
65558;SDS011;52203;51.998;5.140;2023-01-13T17:07:30;8.15;;;2.03;;
65558;SDS011;52203;51.998;5.140;2023-01-13T17:09:56;9.05;;;2.22;;
65558;SDS011;52203;51.998;5.140;2023-01-13T17:12:22;5.82;;;1.90;;
65558;SDS011;52203;51.998;5.140;2023-01-13T17:14:47;8.35;;;2.03;;
65558;SDS011;52203;51.998;5.140;2023-01-13T17:17:22;10.07;;;2.35;;
65558;SDS011;52203;51.998;5.140;2023-01-13T17:19:49;9.23;;;2.17;;
65558;SDS011;52203;51.998;5.140;2023-01-13T17:22:16;7.05;;;1.90;;
65558;SDS011;52203;51.998;5.140;2023-01-13T17:24:41;7.10;;;1.83;;
65558;SDS011;52203;51.998;5.140;2023-01-13T17:27:07;6.65;;;2.40;;
65558;SDS011;52203;51.998;5.140;2023-01-13T17:29:33;9.05;;;2.42;;
65558;SDS011;52203;51.998;5.140;2023-01-13T17:31:59;6.43;;;2.00;;
65558;SDS011;52203;51.998;5.140;2023-01-13T17:34:25;10.57;;;1.98;;
65558;SDS011;52203;51.998;5.140;2023-01-13T17:36:51;5.97;;;2.17;;
65558;SDS011;52203;51.998;5.140;2023-01-13T17:39:20;6.93;;;1.50;;
65558;SDS011;52203;51.998;5.140;2023-01-13T17:41:48;4.82;;;1.80;;